Capitan FAP Guillermo Concha Iberico International Airport


Codes: SPUR/PIU
Name: Capitan FAP Guillermo Concha Iberico International Airport
City: Piura
Country: Peru
Elevation: 120 ft.
Wikipedia:

Photos at Capitan FAP Guillermo Concha Iberico International Airport


   Photos courtesy of SpottingLog. You can add your own sightings and photos by signing up for a free trial today.



No photos found.

Weather at Capitan FAP Guillermo Concha Iberico International Airport


Time (UTC)DescriptionTempratureWindCloud coverageVisibilityPressureHumidity
26-Jun-2024 00:00Scattered Clouds22°C16 mph, S48%10000m1014hPa60%
26-Jun-2024 03:00Scattered Clouds21°C16 mph, S46%10000m1015hPa64%
26-Jun-2024 06:00Scattered Clouds20°C11 mph, SE49%10000m1016hPa70%
26-Jun-2024 09:00Scattered Clouds18°C9 mph, S48%10000m1016hPa77%
26-Jun-2024 12:00Scattered Clouds18°C9 mph, SE44%10000m1016hPa79%
26-Jun-2024 15:00Broken Clouds22°C9 mph, SE74%10000m1017hPa58%
26-Jun-2024 18:00Broken Clouds28°C11 mph, S65%10000m1013hPa42%
26-Jun-2024 21:00Few Clouds29°C16 mph, S14%10000m1011hPa40%
27-Jun-2024 00:00Scattered Clouds23°C18 mph, S31%10000m1013hPa57%
27-Jun-2024 03:00Scattered Clouds20°C11 mph, S50%10000m1015hPa67%
27-Jun-2024 06:00Scattered Clouds20°C9 mph, SE44%10000m1015hPa70%
27-Jun-2024 09:00Scattered Clouds19°C9 mph, S31%10000m1014hPa75%
27-Jun-2024 12:00Few Clouds18°C9 mph, S21%10000m1015hPa80%
27-Jun-2024 15:00Few Clouds23°C7 mph, S19%10000m1015hPa59%
27-Jun-2024 18:00Few Clouds28°C9 mph, SW19%10000m1012hPa42%
27-Jun-2024 21:00Scattered Clouds28°C16 mph, SW44%10000m1010hPa44%
28-Jun-2024 00:00Scattered Clouds23°C16 mph, S35%10000m1012hPa59%
28-Jun-2024 03:00Few Clouds20°C13 mph, S19%10000m1015hPa73%
28-Jun-2024 06:00Few Clouds19°C9 mph, S22%10000m1015hPa76%
28-Jun-2024 09:00Broken Clouds19°C9 mph, S75%10000m1014hPa77%
28-Jun-2024 12:00Broken Clouds18°C9 mph, S82%10000m1014hPa80%
28-Jun-2024 15:00Scattered Clouds23°C7 mph, S32%10000m1015hPa60%
28-Jun-2024 18:00Few Clouds28°C9 mph, S22%10000m1013hPa44%
28-Jun-2024 21:00Few Clouds27°C16 mph, SW24%10000m1011hPa46%
29-Jun-2024 00:00Scattered Clouds23°C18 mph, S40%10000m1013hPa58%
29-Jun-2024 03:00Broken Clouds20°C13 mph, S64%10000m1016hPa70%
29-Jun-2024 06:00Broken Clouds20°C9 mph, S66%10000m1016hPa72%
29-Jun-2024 09:00Scattered Clouds19°C9 mph, S47%10000m1015hPa75%
29-Jun-2024 12:00Scattered Clouds19°C9 mph, SE49%10000m1015hPa78%
29-Jun-2024 15:00Scattered Clouds24°C9 mph, S38%10000m1016hPa57%
29-Jun-2024 18:00Scattered Clouds29°C11 mph, S44%10000m1013hPa41%
29-Jun-2024 21:00Clear Sky29°C16 mph, S9%10000m1011hPa40%
30-Jun-2024 00:00Clear Sky23°C20 mph, S10%10000m1013hPa59%
30-Jun-2024 03:00Few Clouds20°C13 mph, S14%10000m1015hPa70%
30-Jun-2024 06:00Few Clouds19°C9 mph, S18%10000m1015hPa75%
30-Jun-2024 09:00Broken Clouds19°C9 mph, SE53%10000m1014hPa78%
30-Jun-2024 12:00Broken Clouds19°C9 mph, SE73%10000m1015hPa78%
30-Jun-2024 15:00Scattered Clouds24°C9 mph, S49%10000m1015hPa58%
30-Jun-2024 18:00Scattered Clouds30°C11 mph, S34%10000m1012hPa40%
30-Jun-2024 21:00Few Clouds30°C16 mph, S12%10000m1010hPa38%